Time;durP1;ratioP1;P1;durP2;ratioP2;P2;SDS_P1;SDS_P2;PMS_P1;PMS_P2;Temp;Humidity;BMP_temperature;BMP_pressure;BME280_temperature;BME280_humidity;BME280_pressure;Samples;Min_cycle;Max_cycle;Signal;HPM_P1;HPM_P2
2021/04/08 00:01:30;;;;;;;25.07;3.97;;;3.10;82.00;;;;;;5053118;28;20187;-81
2021/04/08 00:03:56;;;;;;;23.97;3.63;;;3.10;82.20;;;;;;5052837;28;20640;-81
2021/04/08 00:06:22;;;;;;;16.17;3.33;;;3.10;82.40;;;;;;5034860;28;20198;-81
2021/04/08 00:08:48;;;;;;;23.07;4.53;;;3.20;82.50;;;;;;5052813;28;20200;-81
2021/04/08 00:11:13;;;;;;;30.10;3.90;;;3.20;82.40;;;;;;5052689;28;20171;-80
2021/04/08 00:13:39;;;;;;;26.23;4.87;;;3.20;82.70;;;;;;5052712;28;20200;-80
2021/04/08 00:16:05;;;;;;;21.03;3.30;;;3.20;82.50;;;;;;5034854;28;20205;-80
2021/04/08 00:18:31;;;;;;;26.83;3.13;;;3.20;82.80;;;;;;5052942;28;20177;-80
2021/04/08 00:20:58;;;;;;;22.30;4.73;;;3.10;83.00;;;;;;5052759;28;20231;-80
2021/04/08 00:23:24;;;;;;;27.80;4.63;;;3.20;82.80;;;;;;5034927;28;20180;-82
2021/04/08 00:25:49;;;;;;;18.40;3.20;;;3.20;82.20;;;;;;5052894;28;20267;-80
2021/04/08 00:28:15;;;;;;;26.47;4.50;;;3.30;81.50;;;;;;5052610;28;20185;-80
2021/04/08 00:30:44;;;;;;;17.73;3.23;;;3.30;80.40;;;;;;5052651;28;20176;-80
2021/04/08 00:33:10;;;;;;;17.30;3.13;;;3.30;79.60;;;;;;5052530;28;20208;-80
2021/04/08 00:35:36;;;;;;;24.10;4.33;;;3.30;79.20;;;;;;5052589;28;20173;-80
2021/04/08 00:38:02;;;;;;;13.47;3.80;;;3.20;79.40;;;;;;5034758;28;20186;-80
2021/04/08 00:40:28;;;;;;;16.87;3.93;;;3.20;79.00;;;;;;5037006;28;20205;-80
2021/04/08 00:42:54;;;;;;;18.77;2.70;;;3.10;78.90;;;;;;5038268;28;20182;-80
2021/04/08 00:45:19;;;;;;;18.67;4.03;;;3.20;78.70;;;;;;5056100;28;20182;-81
2021/04/08 00:47:45;;;;;;;19.40;3.37;;;3.30;78.70;;;;;;5056294;28;20653;-80
2021/04/08 00:50:12;;;;;;;14.47;3.70;;;3.30;79.00;;;;;;5056376;28;20177;-80
2021/04/08 00:52:38;;;;;;;20.00;3.33;;;3.30;79.10;;;;;;5056228;28;20218;-81
2021/04/08 00:55:04;;;;;;;20.20;3.90;;;3.20;79.70;;;;;;5055886;28;20204;-80
2021/04/08 00:57:29;;;;;;;11.33;2.47;;;3.10;80.10;;;;;;5055644;28;20222;-80
2021/04/08 00:59:56;;;;;;;14.33;2.57;;;3.20;80.50;;;;;;5055854;28;20177;-80
2021/04/08 01:02:22;;;;;;;11.70;2.20;;;3.20;81.00;;;;;;5055858;28;20184;-80
2021/04/08 01:04:47;;;;;;;13.93;2.83;;;3.10;80.50;;;;;;5055735;28;20185;-80
2021/04/08 01:07:13;;;;;;;11.93;2.67;;;3.00;80.70;;;;;;5055602;28;20199;-80
2021/04/08 01:09:39;;;;;;;12.90;2.87;;;3.00;80.50;;;;;;5055888;28;20183;-80
2021/04/08 01:12:05;;;;;;;13.50;2.40;;;3.00;80.70;;;;;;5055479;28;20288;-80
2021/04/08 01:14:31;;;;;;;22.33;3.70;;;3.00;79.90;;;;;;5056416;28;20306;-81
2021/04/08 01:17:00;;;;;;;11.67;2.53;;;2.90;80.10;;;;;;5037617;28;20204;-80
2021/04/08 01:19:45;;;;;;;16.07;2.93;;;2.90;80.50;;;;;;5037840;28;20543;-80
2021/04/08 01:22:16;;;;;;;10.37;2.67;;;2.90;81.20;;;;;;5055734;28;20251;-81
2021/04/08 01:25:08;;;;;;;13.87;2.70;;;2.80;83.10;;;;;;5055765;28;20226;-80
2021/04/08 01:27:45;;;;;;;10.50;2.40;;;2.70;83.50;;;;;;5037333;28;20200;-80
2021/04/08 01:30:19;;;;;;;9.73;2.33;;;2.50;84.60;;;;;;5055560;28;20168;-80
2021/04/08 01:32:56;;;;;;;16.93;3.10;;;2.40;85.20;;;;;;5055362;28;20553;-80
2021/04/08 01:35:26;;;;;;;17.47;3.20;;;2.40;85.10;;;;;;5055293;28;20160;-80
2021/04/08 01:38:05;;;;;;;15.70;3.30;;;2.50;84.50;;;;;;5037222;28;20574;-80
2021/04/08 01:40:32;;;;;;;14.07;3.00;;;2.60;84.30;;;;;;5055133;28;20176;-80
2021/04/08 01:43:00;;;;;;;12.73;2.53;;;2.60;84.70;;;;;;5037188;28;20191;-80
2021/04/08 01:45:28;;;;;;;21.53;3.57;;;2.40;85.90;;;;;;5054972;28;20181;-80
2021/04/08 01:47:54;;;;;;;13.70;2.67;;;2.30;85.90;;;;;;5037050;28;20592;-81
2021/04/08 01:50:22;;;;;;;10.97;2.73;;;2.40;85.90;;;;;;5037080;28;20191;-80
2021/04/08 01:52:49;;;;;;;17.57;3.10;;;2.40;86.10;;;;;;5054813;28;20200;-80
2021/04/08 01:55:16;;;;;;;12.00;2.50;;;2.40;86.00;;;;;;5054814;28;20168;-80
2021/04/08 01:57:43;;;;;;;16.60;3.00;;;2.50;86.10;;;;;;5054639;28;20210;-80
2021/04/08 02:00:12;;;;;;;12.60;2.53;;;2.30;86.40;;;;;;5054766;28;20709;-80
2021/04/08 02:02:40;;;;;;;13.70;2.77;;;2.10;86.90;;;;;;5054648;28;20652;-80
2021/04/08 02:05:16;;;;;;;8.60;2.30;;;2.10;87.20;;;;;;5055090;28;20184;-80
2021/04/08 02:07:50;;;;;;;18.30;3.77;;;2.10;87.10;;;;;;5036694;28;20204;-80
2021/04/08 02:10:16;;;;;;;6.63;2.30;;;2.10;87.00;;;;;;5054886;28;20160;-80
2021/04/08 02:12:46;;;;;;;18.47;3.00;;;2.20;87.00;;;;;;5036522;28;20205;-80
2021/04/08 02:15:13;;;;;;;18.70;3.27;;;2.10;87.00;;;;;;5054770;28;20598;-80
2021/04/08 02:17:39;;;;;;;17.00;3.07;;;2.10;86.90;;;;;;5054198;28;20270;-80
2021/04/08 02:20:15;;;;;;;11.87;2.77;;;2.20;86.60;;;;;;5054284;28;20187;-81
2021/04/08 02:22:47;;;;;;;12.97;2.50;;;2.20;86.10;;;;;;5054448;28;20202;-80
2021/04/08 02:25:15;;;;;;;6.97;2.17;;;2.30;85.40;;;;;;5054346;28;20653;-80
2021/04/08 02:27:42;;;;;;;5.83;1.97;;;2.30;84.50;;;;;;5036332;28;20197;-80
2021/04/08 02:30:12;;;;;;;9.97;1.83;;;2.30;84.70;;;;;;5036261;28;20243;-80
2021/04/08 02:32:38;;;;;;;11.33;2.00;;;2.30;84.60;;;;;;5053936;28;20290;-80
2021/04/08 02:35:10;;;;;;;8.13;2.00;;;2.30;84.70;;;;;;5036186;28;20581;-80
2021/04/08 02:37:36;;;;;;;10.77;2.30;;;2.30;84.80;;;;;;5036072;28;20236;-81
2021/04/08 02:40:05;;;;;;;7.47;2.30;;;2.20;84.30;;;;;;5036118;28;20205;-80
2021/04/08 02:42:31;;;;;;;5.70;1.60;;;2.20;84.20;;;;;;5036151;28;20176;-81
2021/04/08 02:44:56;;;;;;;11.53;1.90;;;2.10;84.40;;;;;;5053829;28;20649;-81
2021/04/08 02:47:22;;;;;;;8.20;2.10;;;2.10;84.80;;;;;;5053859;28;20200;-81
2021/04/08 02:49:49;;;;;;;15.93;2.60;;;2.10;84.90;;;;;;5036081;28;20211;-80
2021/04/08 02:52:19;;;;;;;12.53;2.30;;;2.30;84.80;;;;;;5053620;28;20197;-81
2021/04/08 02:54:48;;;;;;;12.07;2.10;;;2.30;84.90;;;;;;5053745;28;20160;-81
2021/04/08 02:57:36;;;;;;;16.13;2.83;;;2.20;85.10;;;;;;5035443;28;20211;-80
2021/04/08 03:00:09;;;;;;;20.73;2.83;;;2.20;85.20;;;;;;5053737;28;20172;-80
2021/04/08 03:02:37;;;;;;;21.00;3.60;;;2.30;85.20;;;;;;5053433;28;20600;-80
2021/04/08 03:05:07;;;;;;;10.03;3.07;;;2.30;85.30;;;;;;5053473;28;20211;-81
2021/04/08 03:07:46;;;;;;;12.77;2.97;;;2.20;85.30;;;;;;5053381;28;20337;-80
2021/04/08 03:10:14;;;;;;;9.30;2.40;;;2.00;85.90;;;;;;5053639;28;20164;-81
2021/04/08 03:12:44;;;;;;;20.27;5.10;;;2.00;85.90;;;;;;5053284;28;20283;-81
2021/04/08 03:15:10;;;;;;;18.33;3.20;;;2.00;86.20;;;;;;5053935;28;20153;-80
2021/04/08 03:17:39;;;;;;;15.60;3.17;;;2.00;86.40;;;;;;5053303;28;20680;-81
2021/04/08 03:20:07;;;;;;;13.07;2.70;;;1.90;86.20;;;;;;5035441;28;20174;-81
2021/04/08 03:22:35;;;;;;;22.13;3.30;;;1.80;86.30;;;;;;5053214;28;20589;-81
2021/04/08 03:25:01;;;;;;;22.50;3.70;;;1.80;86.50;;;;;;5053774;28;20179;-81
2021/04/08 03:27:29;;;;;;;19.47;3.97;;;1.80;86.40;;;;;;5035177;28;20204;-81
2021/04/08 03:29:56;;;;;;;23.57;3.70;;;1.80;86.60;;;;;;5053194;28;20168;-80
2021/04/08 03:32:22;;;;;;;13.00;2.57;;;1.80;86.70;;;;;;5053325;28;20207;-81
2021/04/08 03:34:48;;;;;;;14.17;2.93;;;1.90;86.60;;;;;;5035264;28;20214;-80
2021/04/08 03:37:17;;;;;;;22.20;4.50;;;1.80;86.70;;;;;;5035170;28;20207;-81
2021/04/08 03:39:43;;;;;;;14.07;2.97;;;1.80;86.70;;;;;;5053347;28;20595;-81
2021/04/08 03:42:16;;;;;;;15.30;2.80;;;1.90;86.80;;;;;;5053209;28;20174;-81
2021/04/08 03:44:42;;;;;;;15.30;2.97;;;1.90;86.80;;;;;;5035177;28;20238;-81
2021/04/08 03:47:09;;;;;;;18.07;3.70;;;2.00;87.00;;;;;;5035075;28;20294;-80
2021/04/08 03:49:35;;;;;;;16.53;3.17;;;2.00;86.80;;;;;;5053029;28;20172;-81
2021/04/08 03:52:04;;;;;;;24.90;4.63;;;2.10;87.00;;;;;;5052981;28;20263;-80
2021/04/08 03:54:31;;;;;;;19.80;3.73;;;2.30;86.90;;;;;;5053420;28;20512;-81
2021/04/08 03:56:57;;;;;;;23.90;3.83;;;2.30;86.90;;;;;;5034951;28;20212;-80
2021/04/08 03:59:24;;;;;;;22.90;4.37;;;2.30;87.00;;;;;;5052925;28;20172;-80
2021/04/08 04:01:51;;;;;;;15.30;3.00;;;2.30;86.90;;;;;;5052853;28;20171;-81
2021/04/08 04:04:18;;;;;;;15.70;3.50;;;2.40;86.60;;;;;;5035011;28;20180;-80
2021/04/08 04:06:51;;;;;;;19.50;3.67;;;2.40;86.60;;;;;;5052752;28;20199;-81
2021/04/08 04:09:17;;;;;;;17.20;4.10;;;2.40;86.50;;;;;;5052838;28;20182;-80
2021/04/08 04:11:45;;;;;;;28.97;3.73;;;2.30;86.40;;;;;;5052623;28;20223;-80
2021/04/08 04:14:16;;;;;;;18.27;3.13;;;2.30;86.60;;;;;;5035212;28;20192;-80
2021/04/08 04:16:45;;;;;;;17.30;3.30;;;2.20;86.70;;;;;;5056573;28;20199;-81
2021/04/08 04:19:11;;;;;;;11.93;3.27;;;2.00;86.70;;;;;;5056644;28;20535;-81
2021/04/08 04:21:37;;;;;;;13.23;3.47;;;2.00;86.80;;;;;;5056699;28;20190;-81
2021/04/08 04:24:07;;;;;;;16.80;2.57;;;1.90;86.40;;;;;;5056721;28;20308;-80
2021/04/08 04:26:32;;;;;;;18.20;3.90;;;1.90;86.10;;;;;;5056573;28;20220;-82
2021/04/08 04:28:58;;;;;;;7.53;2.13;;;1.80;86.10;;;;;;5056427;28;20627;-80
2021/04/08 04:31:24;;;;;;;15.40;3.13;;;1.80;86.30;;;;;;5038577;28;20664;-81
2021/04/08 04:33:50;;;;;;;15.47;3.20;;;1.80;86.40;;;;;;5056295;28;20243;-81
2021/04/08 04:36:18;;;;;;;21.10;3.30;;;1.80;86.50;;;;;;5056308;28;20192;-81
2021/04/08 04:38:43;;;;;;;14.23;3.20;;;1.80;86.30;;;;;;5056237;28;20168;-80
2021/04/08 04:41:09;;;;;;;34.70;4.67;;;1.80;86.40;;;;;;5038255;28;20210;-81
2021/04/08 04:43:34;;;;;;;15.70;4.13;;;1.80;86.20;;;;;;5038590;28;20262;-80
2021/04/08 04:46:00;;;;;;;13.57;2.80;;;1.90;86.20;;;;;;5056380;28;20192;-81
2021/04/08 04:48:26;;;;;;;22.43;4.83;;;1.90;86.00;;;;;;5056344;28;20177;-81
2021/04/08 04:50:52;;;;;;;23.60;3.63;;;1.90;85.90;;;;;;5056304;28;20177;-81
2021/04/08 04:53:18;;;;;;;17.70;3.23;;;1.90;85.90;;;;;;5056129;28;20208;-81
2021/04/08 04:55:44;;;;;;;12.87;2.50;;;1.90;85.70;;;;;;5055838;28;20168;-80
2021/04/08 04:58:09;;;;;;;17.60;3.20;;;1.90;85.50;;;;;;5055874;28;20608;-81
2021/04/08 05:00:36;;;;;;;15.30;3.53;;;1.80;85.90;;;;;;5056122;28;20566;-81
2021/04/08 05:03:01;;;;;;;16.00;3.53;;;1.80;85.90;;;;;;5037831;28;20260;-80
2021/04/08 05:05:27;;;;;;;17.63;3.17;;;1.70;85.80;;;;;;5055671;28;20749;-80
2021/04/08 05:07:52;;;;;;;12.07;3.13;;;1.80;85.90;;;;;;5037760;28;20282;-80
2021/04/08 05:10:18;;;;;;;17.77;3.40;;;1.80;85.80;;;;;;5055720;28;20176;-80
2021/04/08 05:12:44;;;;;;;13.43;3.03;;;1.70;85.60;;;;;;5037707;28;20198;-80
2021/04/08 05:15:10;;;;;;;18.47;3.13;;;1.70;85.70;;;;;;5037723;28;20170;-80
2021/04/08 05:17:35;;;;;;;17.30;2.97;;;1.60;85.90;;;;;;5055447;28;20627;-80
2021/04/08 05:20:01;;;;;;;23.13;3.10;;;1.60;86.20;;;;;;5055819;28;20254;-81
2021/04/08 05:22:27;;;;;;;7.60;2.77;;;1.60;86.30;;;;;;5055513;28;20176;-80
2021/04/08 05:24:53;;;;;;;25.80;3.63;;;1.60;86.20;;;;;;5055443;28;20175;-80
2021/04/08 05:27:19;;;;;;;14.27;2.93;;;1.60;86.20;;;;;;5037283;28;20211;-80
2021/04/08 05:29:44;;;;;;;10.10;2.67;;;1.60;86.20;;;;;;5055360;28;20252;-80
2021/04/08 05:32:10;;;;;;;17.37;3.13;;;1.60;86.30;;;;;;5037348;28;20339;-80
2021/04/08 05:34:36;;;;;;;21.40;2.77;;;1.60;86.40;;;;;;5055177;28;20196;-80
2021/04/08 05:37:02;;;;;;;22.67;3.40;;;1.60;86.40;;;;;;5055045;28;20199;-80
2021/04/08 05:39:28;;;;;;;17.27;3.07;;;1.50;86.40;;;;;;5055205;28;20183;-80
2021/04/08 05:41:54;;;;;;;13.67;4.00;;;1.60;86.40;;;;;;5037186;28;20226;-80
2021/04/08 05:44:20;;;;;;;13.23;3.20;;;1.60;86.40;;;;;;5055070;28;20175;-80
2021/04/08 05:46:46;;;;;;;16.67;3.17;;;1.70;86.40;;;;;;5054884;28;20246;-80
2021/04/08 05:49:12;;;;;;;15.80;3.20;;;1.80;85.90;;;;;;5054963;28;20175;-81
2021/04/08 05:51:37;;;;;;;15.93;2.83;;;1.90;85.80;;;;;;5054777;28;20589;-80
2021/04/08 05:54:03;;;;;;;15.67;3.60;;;2.00;85.80;;;;;;5054972;28;20261;-80
2021/04/08 05:56:29;;;;;;;18.87;2.83;;;2.00;86.00;;;;;;5036734;28;20581;-80
2021/04/08 05:58:54;;;;;;;13.87;2.80;;;2.00;86.10;;;;;;5054724;28;20174;-80
2021/04/08 06:01:20;;;;;;;23.07;2.70;;;2.00;86.20;;;;;;5054738;28;20247;-80
2021/04/08 06:03:48;;;;;;;19.73;3.67;;;2.00;86.30;;;;;;5054813;28;20157;-80
2021/04/08 06:06:13;;;;;;;20.67;3.13;;;2.10;86.30;;;;;;5054508;28;20285;-80
2021/04/08 06:08:39;;;;;;;19.23;3.03;;;2.20;86.00;;;;;;5054944;28;20268;-80
2021/04/08 06:11:05;;;;;;;16.30;3.23;;;2.20;85.90;;;;;;5054476;28;20227;-80
2021/04/08 06:13:30;;;;;;;21.20;3.40;;;2.30;86.00;;;;;;5054449;28;20208;-80
2021/04/08 06:15:56;;;;;;;22.73;2.60;;;2.40;86.50;;;;;;5054360;28;20215;-80
2021/04/08 06:18:22;;;;;;;18.27;4.50;;;2.50;87.30;;;;;;5054757;28;20252;-80
2021/04/08 06:20:47;;;;;;;24.87;4.60;;;2.60;87.60;;;;;;5054321;28;20193;-80
2021/04/08 06:23:14;;;;;;;18.43;3.20;;;2.80;87.60;;;;;;5055008;28;20168;-80
2021/04/08 06:25:40;;;;;;;8.70;2.73;;;2.70;87.10;;;;;;5054161;28;20644;-80
2021/04/08 06:28:05;;;;;;;15.20;3.07;;;2.70;86.80;;;;;;5036586;28;20172;-80
2021/04/08 06:30:31;;;;;;;13.90;2.83;;;2.70;86.40;;;;;;5054576;28;20269;-80
2021/04/08 06:32:57;;;;;;;12.93;2.73;;;2.60;85.60;;;;;;5054398;28;20220;-80
2021/04/08 06:35:23;;;;;;;12.50;2.43;;;2.50;86.00;;;;;;5036373;28;20637;-80
2021/04/08 06:37:51;;;;;;;18.93;4.07;;;2.50;85.90;;;;;;5053933;28;20188;-80
2021/04/08 06:40:18;;;;;;;10.43;2.70;;;2.60;85.50;;;;;;5036470;28;20240;-80
2021/04/08 06:42:45;;;;;;;14.60;3.23;;;2.60;85.60;;;;;;5036436;28;20651;-81
2021/04/08 06:45:12;;;;;;;18.00;3.10;;;2.60;85.50;;;;;;5054247;28;20255;-80
2021/04/08 06:48:02;;;;;;;6.97;2.83;;;2.80;85.80;;;;;;5053979;28;20213;-80
2021/04/08 06:50:36;;;;;;;14.43;2.33;;;2.90;85.90;;;;;;5036303;28;20549;-80
2021/04/08 06:53:03;;;;;;;12.73;2.67;;;2.90;86.10;;;;;;5036293;28;20568;-80
2021/04/08 06:55:30;;;;;;;15.10;2.83;;;2.70;86.10;;;;;;5036225;28;20199;-80
2021/04/08 06:57:57;;;;;;;21.83;3.20;;;2.50;87.20;;;;;;5035730;28;20271;-80
2021/04/08 07:00:22;;;;;;;18.20;4.07;;;2.30;88.00;;;;;;5053876;28;20172;-80
2021/04/08 07:02:48;;;;;;;10.13;2.47;;;2.30;88.10;;;;;;5035742;28;20571;-80
2021/04/08 07:05:14;;;;;;;16.43;3.53;;;2.40;88.00;;;;;;5054127;28;20174;-80
2021/04/08 07:07:40;;;;;;;13.73;3.47;;;2.60;88.50;;;;;;5035742;28;20202;-80
2021/04/08 07:10:06;;;;;;;17.97;3.57;;;2.90;88.70;;;;;;5053681;28;20174;-80
2021/04/08 07:12:32;;;;;;;15.27;3.33;;;3.00;88.60;;;;;;5053308;28;20198;-80
2021/04/08 07:14:58;;;;;;;15.87;4.30;;;3.10;87.80;;;;;;5035586;28;20179;-80
2021/04/08 07:17:24;;;;;;;16.00;5.23;;;3.20;87.50;;;;;;5054049;28;20188;-81
2021/04/08 07:19:50;;;;;;;15.60;5.90;;;3.10;86.30;;;;;;5035810;28;20175;-80
2021/04/08 07:22:17;;;;;;;10.07;3.30;;;3.20;87.10;;;;;;5035439;28;20594;-80
2021/04/08 07:24:48;;;;;;;22.23;4.07;;;3.20;86.50;;;;;;5035343;28;20673;-80
2021/04/08 07:27:17;;;;;;;14.67;2.90;;;3.30;86.90;;;;;;5035405;28;20673;-80
2021/04/08 07:29:44;;;;;;;17.50;3.50;;;3.30;86.50;;;;;;5053136;28;20263;-80
2021/04/08 07:32:26;;;;;;;13.77;4.17;;;3.30;86.30;;;;;;5053299;28;20682;-81
2021/04/08 07:34:57;;;;;;;16.77;3.70;;;3.40;87.40;;;;;;5035478;28;20711;-80
2021/04/08 07:37:27;;;;;;;18.37;3.77;;;3.50;86.80;;;;;;5053422;28;20186;-80
2021/04/08 07:39:53;;;;;;;12.47;3.47;;;3.70;87.50;;;;;;5053399;28;20176;-80
2021/04/08 07:42:25;;;;;;;18.20;4.00;;;3.90;87.10;;;;;;5053043;28;20257;-80
2021/04/08 07:44:56;;;;;;;20.77;4.53;;;4.00;87.10;;;;;;5035287;28;20523;-80
2021/04/08 07:47:36;;;;;;;14.10;3.87;;;4.00;86.70;;;;;;5052995;28;20187;-80
2021/04/08 07:50:05;;;;;;;17.27;3.10;;;3.90;86.10;;;;;;5057133;28;20169;-80
2021/04/08 07:52:35;;;;;;;13.40;3.27;;;3.90;85.60;;;;;;5057105;28;20204;-80
2021/04/08 07:55:05;;;;;;;9.73;3.37;;;3.90;84.40;;;;;;5039317;28;20163;-80
2021/04/08 07:57:32;;;;;;;13.33;3.47;;;3.80;84.80;;;;;;5056830;28;20203;-80
2021/04/08 08:00:17;;;;;;;15.73;3.07;;;3.60;84.80;;;;;;5056983;28;20168;-80
2021/04/08 08:02:43;;;;;;;11.87;3.60;;;3.20;85.50;;;;;;5057212;28;20162;-80
2021/04/08 08:05:26;;;;;;;12.47;3.17;;;3.20;86.30;;;;;;5056962;28;20539;-81
2021/04/08 08:07:53;;;;;;;19.17;4.03;;;3.00;86.40;;;;;;5057131;28;20191;-81
2021/04/08 08:10:25;;;;;;;24.17;3.63;;;2.90;86.80;;;;;;5056818;28;20179;-80
2021/04/08 08:12:52;;;;;;;9.93;3.00;;;3.00;87.20;;;;;;5056854;28;20279;-81
2021/04/08 08:15:20;;;;;;;14.97;3.77;;;3.20;87.50;;;;;;5038769;28;20176;-83
2021/04/08 08:17:47;;;;;;;13.50;3.63;;;3.30;87.90;;;;;;5038709;28;20203;-80
2021/04/08 08:20:13;;;;;;;11.07;3.37;;;3.40;88.40;;;;;;5056636;28;20173;-80
2021/04/08 08:22:40;;;;;;;15.07;3.73;;;3.60;88.60;;;;;;5038760;28;20241;-80
2021/04/08 08:25:07;;;;;;;11.87;3.03;;;3.70;88.00;;;;;;5057083;28;20171;-80
2021/04/08 08:27:47;;;;;;;11.67;3.37;;;3.70;87.70;;;;;;5056331;28;20324;-80
2021/04/08 08:30:52;;;;;;;12.73;3.03;;;4.00;88.30;;;;;;5056697;28;20158;-81
2021/04/08 08:33:19;;;;;;;17.80;3.67;;;4.30;88.50;;;;;;5056456;28;20191;-80
2021/04/08 08:35:45;;;;;;;10.43;2.37;;;4.40;87.30;;;;;;5056370;28;20195;-80
2021/04/08 08:38:14;;;;;;;11.53;2.87;;;4.30;86.00;;;;;;5056345;28;20170;-80
2021/04/08 08:40:41;;;;;;;22.33;3.90;;;4.30;86.00;;;;;;5038338;28;20183;-81
2021/04/08 08:43:08;;;;;;;17.27;2.60;;;4.30;85.70;;;;;;5038233;28;20177;-81
2021/04/08 08:45:34;;;;;;;13.50;2.63;;;4.30;84.90;;;;;;5038214;28;20183;-81
2021/04/08 08:48:03;;;;;;;14.27;2.87;;;4.30;84.60;;;;;;5056010;28;20605;-81
2021/04/08 08:50:29;;;;;;;9.93;2.60;;;4.40;83.80;;;;;;5055937;28;20184;-81
2021/04/08 08:52:55;;;;;;;12.73;3.03;;;4.40;83.90;;;;;;5055930;28;20196;-81
2021/04/08 08:55:23;;;;;;;11.73;2.50;;;4.50;83.90;;;;;;5038000;28;20178;-80
2021/04/08 08:57:53;;;;;;;10.50;2.47;;;4.60;84.40;;;;;;5038165;28;20216;-81
2021/04/08 09:00:21;;;;;;;9.27;2.10;;;4.70;82.60;;;;;;5037280;28;20182;-81
2021/04/08 09:02:47;;;;;;;8.77;1.87;;;4.80;81.70;;;;;;5037917;28;20178;-81
2021/04/08 09:05:19;;;;;;;8.17;2.37;;;5.00;81.70;;;;;;5055741;28;20167;-81
2021/04/08 09:07:48;;;;;;;8.77;2.63;;;5.00;79.80;;;;;;5055798;28;20198;-81
2021/04/08 09:10:26;;;;;;;10.97;2.40;;;5.00;79.80;;;;;;5056512;28;20182;-81
2021/04/08 09:12:52;;;;;;;11.00;2.30;;;4.90;79.70;;;;;;5038164;28;20201;-81
2021/04/08 09:15:18;;;;;;;11.33;2.23;;;4.80;79.60;;;;;;5056581;28;20200;-81
2021/04/08 09:17:47;;;;;;;14.97;2.73;;;4.80;79.00;;;;;;5037886;28;20196;-82
2021/04/08 09:20:18;;;;;;;9.07;1.90;;;4.80;79.30;;;;;;5037893;28;20718;-81
2021/04/08 09:23:02;;;;;;;10.63;2.00;;;4.90;80.30;;;;;;5056061;28;20193;-82
2021/04/08 09:25:29;;;;;;;8.00;2.17;;;4.70;78.70;;;;;;5037807;28;20183;-81
2021/04/08 09:28:01;;;;;;;8.40;2.23;;;4.30;79.70;;;;;;5055837;28;20202;-81
2021/04/08 09:33:15;;;;;;;4.97;2.50;;;3.70;83.20;;;;;;5055868;28;20195;-81
2021/04/08 09:35:43;;;;;;;6.97;2.10;;;3.40;85.00;;;;;;5037800;28;20252;-82
2021/04/08 09:38:09;;;;;;;8.57;2.50;;;3.30;86.60;;;;;;5056016;28;20169;-81
2021/04/08 09:40:42;;;;;;;5.23;2.30;;;3.20;86.80;;;;;;5037621;28;20185;-81
2021/04/08 09:43:20;;;;;;;4.27;1.77;;;3.30;86.80;;;;;;5055332;28;20597;-81
2021/04/08 09:45:52;;;;;;;10.33;2.43;;;3.50;87.10;;;;;;5055401;28;20249;-81
2021/04/08 09:48:22;;;;;;;10.17;1.90;;;3.70;86.70;;;;;;5055247;28;20175;-81
2021/04/08 09:50:49;;;;;;;9.60;2.13;;;3.80;86.40;;;;;;5054968;28;20259;-81
2021/04/08 09:53:17;;;;;;;7.90;1.83;;;4.00;86.10;;;;;;5054963;28;20207;-81
2021/04/08 09:55:55;;;;;;;13.03;2.20;;;4.20;85.50;;;;;;5055099;28;20642;-81
2021/04/08 09:58:24;;;;;;;6.77;2.07;;;4.20;85.10;;;;;;5054819;28;20675;-80
2021/04/08 10:00:51;;;;;;;6.50;2.10;;;4.40;85.70;;;;;;5036895;28;20195;-80
2021/04/08 10:03:29;;;;;;;6.63;1.90;;;4.60;85.30;;;;;;5036930;28;20431;-81
2021/04/08 10:05:55;;;;;;;10.20;2.33;;;4.80;83.70;;;;;;5036678;28;20179;-81
2021/04/08 10:08:22;;;;;;;5.23;2.23;;;5.10;84.00;;;;;;5036719;28;20551;-82
2021/04/08 10:10:48;;;;;;;7.37;2.30;;;5.40;84.10;;;;;;5054808;28;20180;-88
2021/04/08 10:13:25;;;;;;;9.57;1.83;;;5.80;84.20;;;;;;5053468;28;20228;-88
2021/04/08 10:15:53;;;;;;;8.47;2.40;;;5.80;81.30;;;;;;5036540;28;20533;-88
2021/04/08 10:18:27;;;;;;;8.37;1.93;;;5.70;80.10;;;;;;5036556;28;20200;-88
2021/04/08 10:20:55;;;;;;;4.17;1.60;;;5.60;79.30;;;;;;5054860;28;20156;-88
2021/04/08 10:23:29;;;;;;;7.73;1.70;;;5.00;78.80;;;;;;5054308;28;20251;-88
2021/04/08 10:26:07;;;;;;;3.53;1.30;;;4.70;77.70;;;;;;5054206;28;20237;-88
2021/04/08 10:28:54;;;;;;;6.33;1.90;;;4.40;80.30;;;;;;5036457;28;20164;-88
2021/04/08 10:31:26;;;;;;;8.00;2.10;;;4.30;81.60;;;;;;5036374;28;20174;-88
2021/04/08 10:33:51;;;;;;;7.20;2.00;;;4.40;82.40;;;;;;5054082;28;20738;-89
2021/04/08 10:36:30;;;;;;;5.73;2.00;;;4.50;81.80;;;;;;5036179;28;20234;-88
2021/04/08 10:39:17;;;;;;;5.93;1.77;;;4.80;82.50;;;;;;5036403;28;20250;-88
2021/04/08 10:42:02;;;;;;;6.00;1.80;;;5.20;81.00;;;;;;5054043;28;20155;-88
2021/04/08 10:44:32;;;;;;;5.80;1.50;;;5.50;76.70;;;;;;5036047;28;20170;-88
2021/04/08 10:47:08;;;;;;;5.17;1.50;;;5.70;78.00;;;;;;5053716;28;20244;-88
2021/04/08 10:49:35;;;;;;;3.47;1.47;;;6.00;76.00;;;;;;5036111;28;20175;-89
2021/04/08 10:52:10;;;;;;;5.97;1.53;;;6.30;75.40;;;;;;5035846;28;20180;-88
2021/04/08 10:54:38;;;;;;;4.77;1.87;;;6.40;75.30;;;;;;5035871;28;20172;-88
2021/04/08 10:57:05;;;;;;;3.20;1.50;;;6.30;72.90;;;;;;5035571;28;20266;-88
2021/04/08 10:59:32;;;;;;;4.80;1.77;;;6.20;74.10;;;;;;5035789;28;20176;-88
2021/04/08 11:01:59;;;;;;;5.27;1.87;;;6.00;74.80;;;;;;5053577;28;20173;-88
2021/04/08 11:04:25;;;;;;;9.23;2.83;;;5.60;74.40;;;;;;5035707;28;20183;-88
2021/04/08 11:06:52;;;;;;;4.33;1.50;;;5.30;76.60;;;;;;5053462;28;20184;-87
2021/04/08 11:09:23;;;;;;;8.47;1.70;;;5.10;76.80;;;;;;5036816;28;20230;-88
2021/04/08 11:11:49;;;;;;;3.93;1.83;;;5.00;78.00;;;;;;5053484;28;20176;-88
2021/04/08 11:14:24;;;;;;;12.67;2.87;;;4.90;77.30;;;;;;5035447;28;20297;-89
2021/04/08 11:16:53;;;;;;;6.00;1.70;;;5.10;78.80;;;;;;5035411;28;20198;-88
2021/04/08 11:19:20;;;;;;;8.97;2.30;;;5.20;78.20;;;;;;5035529;28;20611;-88
2021/04/08 11:21:46;;;;;;;10.47;2.53;;;5.40;78.40;;;;;;5036416;28;20226;-88
2021/04/08 11:24:12;;;;;;;5.43;2.40;;;5.50;78.70;;;;;;5035166;28;20180;-88
2021/04/08 11:26:52;;;;;;;10.50;2.53;;;5.50;79.80;;;;;;5035360;28;20200;-88
2021/04/08 11:29:26;;;;;;;10.32;2.85;;;5.80;80.80;;;;;;5052317;28;20476;-89
2021/04/08 11:31:59;;;;;;;5.47;2.07;;;6.10;79.90;;;;;;5053234;28;20167;-89
2021/04/08 11:34:25;;;;;;;4.18;2.05;;;6.20;79.10;;;;;;5052761;28;20831;-88
2021/04/08 11:36:52;;;;;;;7.87;2.20;;;6.30;77.00;;;;;;5053094;28;20186;-86
2021/04/08 11:39:18;;;;;;;5.13;1.80;;;6.30;76.10;;;;;;5035133;28;20182;-85
2021/04/08 11:41:44;;;;;;;3.53;1.80;;;6.30;76.40;;;;;;5035095;28;20173;-85
2021/04/08 11:44:12;;;;;;;7.27;1.90;;;6.20;76.00;;;;;;5053229;28;20205;-85
2021/04/08 11:46:39;;;;;;;6.40;2.03;;;6.50;77.10;;;;;;5052964;28;20224;-87
2021/04/08 11:49:16;;;;;;;2.43;1.80;;;6.50;74.30;;;;;;5053058;28;20174;-87
2021/04/08 11:51:42;;;;;;;4.70;2.40;;;6.50;74.60;;;;;;5035077;28;20279;-87
2021/04/08 11:54:09;;;;;;;2.40;1.60;;;6.60;75.70;;;;;;5052868;28;20290;-88
2021/04/08 11:56:37;;;;;;;6.80;2.80;;;6.50;73.90;;;;;;5052869;28;20299;-88
2021/04/08 11:59:06;;;;;;;6.63;2.47;;;6.60;76.80;;;;;;5052862;28;20646;-87
2021/04/08 12:01:38;;;;;;;5.27;2.40;;;6.60;75.40;;;;;;5035092;28;20642;-87
2021/04/08 12:04:11;;;;;;;4.23;2.37;;;6.40;74.60;;;;;;5052939;28;20165;-87
2021/04/08 12:06:41;;;;;;;7.63;2.70;;;6.40;75.30;;;;;;5052847;28;20676;-87
2021/04/08 12:09:07;;;;;;;7.33;1.77;;;6.30;74.80;;;;;;5052834;28;20512;-87
2021/04/08 12:11:53;;;;;;;5.17;2.13;;;6.20;73.40;;;;;;5034988;28;20234;-87
2021/04/08 12:14:19;;;;;;;4.77;1.77;;;6.40;73.00;;;;;;5034882;28;20215;-88
2021/04/08 12:17:07;;;;;;;8.20;2.20;;;6.60;71.10;;;;;;5052696;28;20194;-88
2021/04/08 12:19:35;;;;;;;2.70;1.90;;;6.50;70.50;;;;;;5052775;28;20168;-88
2021/04/08 12:22:10;;;;;;;3.53;1.80;;;6.70;71.10;;;;;;5035358;28;20304;-88
2021/04/08 12:24:37;;;;;;;7.80;1.87;;;6.90;68.00;;;;;;5034818;28;20645;-88
2021/04/08 12:27:14;;;;;;;4.27;2.10;;;7.30;71.30;;;;;;5034839;28;20201;-87
2021/04/08 12:29:39;;;;;;;6.77;2.23;;;7.30;67.70;;;;;;5052948;28;20155;-87
2021/04/08 12:32:05;;;;;;;6.23;2.67;;;7.10;67.80;;;;;;5052584;28;20174;-88
2021/04/08 12:34:31;;;;;;;6.50;2.30;;;7.00;68.80;;;;;;5052836;28;20250;-88
2021/04/08 12:36:58;;;;;;;8.17;2.53;;;6.70;66.40;;;;;;5037669;28;20207;-87
2021/04/08 12:39:24;;;;;;;4.27;2.13;;;6.40;68.10;;;;;;5038378;28;20594;-87
2021/04/08 12:41:49;;;;;;;7.87;1.80;;;6.30;69.30;;;;;;5038312;28;20215;-87
2021/04/08 12:44:15;;;;;;;5.00;2.00;;;6.10;68.60;;;;;;5056645;28;20176;-87
2021/04/08 12:46:41;;;;;;;6.03;2.17;;;5.90;70.40;;;;;;5056053;28;20280;-87
2021/04/08 12:49:06;;;;;;;4.07;1.93;;;5.90;69.10;;;;;;5056103;28;20180;-87
2021/04/08 12:51:32;;;;;;;9.50;2.67;;;5.90;69.10;;;;;;5056341;28;20164;-86
2021/04/08 12:53:58;;;;;;;5.17;2.10;;;5.90;68.40;;;;;;5038003;28;20243;-87
2021/04/08 12:56:24;;;;;;;3.90;1.70;;;5.90;69.10;;;;;;5037825;28;20204;-87
2021/04/08 12:58:50;;;;;;;5.73;2.33;;;6.00;66.10;;;;;;5038202;28;20173;-87
2021/04/08 13:01:16;;;;;;;8.03;1.83;;;6.00;67.60;;;;;;5055837;28;20250;-87